createdAt,value
2022-08-05T00:00:46.702Z,21.41
2022-08-05T00:03:18.481Z,21.21
2022-08-05T00:06:05.122Z,21.21
2022-08-05T00:08:37.790Z,21.38
2022-08-05T00:11:22.349Z,21.05
2022-08-05T00:13:56.361Z,21.41
2022-08-05T00:16:35.529Z,21.43
2022-08-05T00:19:06.378Z,21.39
2022-08-05T00:21:36.205Z,21.45
2022-08-05T00:24:10.363Z,21.31
2022-08-05T00:26:50.885Z,21.41
2022-08-05T00:29:22.654Z,21.47
2022-08-05T00:32:13.039Z,21.42
2022-08-05T00:35:05.197Z,21.54
2022-08-05T00:37:51.078Z,21.45
2022-08-05T00:40:26.613Z,21.70
2022-08-05T00:42:57.974Z,21.86
2022-08-05T00:45:38.867Z,21.76
2022-08-05T00:48:09.335Z,21.53
2022-08-05T00:50:38.036Z,21.28
2022-08-05T00:53:09.829Z,21.35
2022-08-05T00:55:56.529Z,21.29
2022-08-05T00:58:27.241Z,21.08
2022-08-05T01:01:16.384Z,20.95
2022-08-05T01:04:13.907Z,20.98
2022-08-05T01:06:46.699Z,20.87
2022-08-05T01:09:20.097Z,21.04
2022-08-05T01:11:51.661Z,20.94
2022-08-05T01:14:28.291Z,20.87
2022-08-05T01:17:04.686Z,21.05
2022-08-05T01:20:01.023Z,21.15
2022-08-05T01:22:39.547Z,20.98
2022-08-05T01:25:40.888Z,20.92
2022-08-05T01:28:31.944Z,20.81
2022-08-05T01:31:05.769Z,20.85
2022-08-05T01:33:40.655Z,21.05
2022-08-05T01:36:16.003Z,20.98
2022-08-05T01:38:48.360Z,21.21
2022-08-05T01:41:21.972Z,20.91
2022-08-05T01:43:53.613Z,20.71
2022-08-05T01:46:42.002Z,20.81
2022-08-05T01:49:23.858Z,20.88
2022-08-05T01:51:58.357Z,20.71
2022-08-05T01:54:30.383Z,20.74
2022-08-05T01:58:18.880Z,20.40
2022-08-05T01:59:52.091Z,20.13
2022-08-05T02:02:26.140Z,19.81
2022-08-05T02:05:01.408Z,20.04
2022-08-05T02:07:33.738Z,19.98
2022-08-05T02:10:03.377Z,19.75
2022-08-05T02:12:38.421Z,19.75
2022-08-05T02:15:15.556Z,19.70
2022-08-05T02:18:28.726Z,19.61
2022-08-05T02:20:59.065Z,19.60
2022-08-05T02:23:33.796Z,19.36
2022-08-05T02:26:06.786Z,19.22
2022-08-05T02:28:41.787Z,19.43
2022-08-05T02:31:21.043Z,19.57
2022-08-05T02:33:57.467Z,19.46
2022-08-05T02:36:31.641Z,19.53
2022-08-05T02:39:02.989Z,19.40
2022-08-05T02:41:36.404Z,19.46
2022-08-05T02:44:13.867Z,19.38
2022-08-05T02:46:58.816Z,19.15
2022-08-05T02:49:35.675Z,19.15
2022-08-05T02:52:08.616Z,19.31
2022-08-05T02:54:41.396Z,19.30
2022-08-05T02:58:12.159Z,19.28
2022-08-05T03:00:02.262Z,19.28
2022-08-05T03:02:36.073Z,19.33
2022-08-05T03:05:05.355Z,19.36
2022-08-05T03:07:59.123Z,19.38
2022-08-05T03:10:25.153Z,19.53
2022-08-05T03:12:55.014Z,19.60
2022-08-05T03:15:24.474Z,19.49
2022-08-05T03:17:57.670Z,19.49
2022-08-05T03:20:26.602Z,19.47
2022-08-05T03:22:57.484Z,19.57
2022-08-05T03:25:33.241Z,19.74
2022-08-05T03:28:19.880Z,19.75
2022-08-05T03:30:49.712Z,19.49
2022-08-05T03:33:20.825Z,19.57
2022-08-05T03:35:51.796Z,19.68
2022-08-05T03:38:23.994Z,19.58
2022-08-05T03:41:07.204Z,19.37
2022-08-05T03:44:08.790Z,18.94
2022-08-05T03:46:29.955Z,19.17
2022-08-05T03:49:02.179Z,19.43
2022-08-05T03:52:36.958Z,19.67
2022-08-05T03:55:51.304Z,19.70
2022-08-05T03:57:20.303Z,19.81
2022-08-05T04:00:01.940Z,19.74
2022-08-05T04:02:52.213Z,19.68
2022-08-05T04:05:33.247Z,19.70
2022-08-05T04:08:29.591Z,19.61
2022-08-05T04:10:54.741Z,19.82
2022-08-05T04:13:23.279Z,20.13
2022-08-05T04:16:02.996Z,20.12
2022-08-05T04:18:34.539Z,20.20
2022-08-05T04:21:05.496Z,20.32
2022-08-05T04:24:04.765Z,20.58
2022-08-05T04:26:24.053Z,20.83
2022-08-05T04:28:53.012Z,20.92
2022-08-05T04:31:21.246Z,21.08
2022-08-05T04:34:19.200Z,21.21
2022-08-05T04:36:49.381Z,21.57
2022-08-05T04:39:18.696Z,21.47
2022-08-05T04:41:48.154Z,21.52
2022-08-05T04:44:29.375Z,21.62
2022-08-05T04:46:59.071Z,21.91
2022-08-05T04:50:00.974Z,22.41
2022-08-05T04:52:18.701Z,22.55
2022-08-05T04:54:47.008Z,22.86
2022-08-05T04:57:17.766Z,23.25
2022-08-05T04:59:48.179Z,23.65
2022-08-05T05:02:36.497Z,23.97
2022-08-05T05:05:16.838Z,24.23
2022-08-05T05:08:01.681Z,24.47
2022-08-05T05:10:30.874Z,24.48
2022-08-05T05:13:01.955Z,24.28
2022-08-05T05:15:57.895Z,24.28
2022-08-05T05:18:28.309Z,24.18
2022-08-05T05:21:00.029Z,24.38
2022-08-05T05:23:39.119Z,24.18
2022-08-05T05:26:28.563Z,24.54
2022-08-05T05:29:02.397Z,24.03
2022-08-05T05:34:02.540Z,24.37
2022-08-05T05:36:32.216Z,24.30
2022-08-05T05:39:03.609Z,24.69
2022-08-05T05:41:40.654Z,24.71
2022-08-05T05:44:35.715Z,24.67
2022-08-05T05:47:02.267Z,25.36
2022-08-05T05:49:33.522Z,25.16
2022-08-05T05:52:05.855Z,25.51
2022-08-05T05:54:50.312Z,25.71
2022-08-05T05:57:20.576Z,25.41
2022-08-05T05:59:49.211Z,25.58
2022-08-05T06:02:32.716Z,25.71
2022-08-05T06:05:10.163Z,25.88
2022-08-05T06:08:01.112Z,25.96
2022-08-05T06:10:37.396Z,25.91
2022-08-05T06:13:12.456Z,26.32
2022-08-05T06:16:28.160Z,26.51
2022-08-05T06:18:31.306Z,26.74
2022-08-05T06:21:00.726Z,26.85
2022-08-05T06:23:43.762Z,27.01
2022-08-05T06:26:21.447Z,27.08
2022-08-05T06:28:52.499Z,27.22
2022-08-05T06:31:22.310Z,27.28
2022-08-05T06:34:07.509Z,27.28
2022-08-05T06:36:57.218Z,27.28
2022-08-05T06:39:27.833Z,27.38
2022-08-05T06:41:58.729Z,27.41
2022-08-05T06:44:27.497Z,27.70
2022-08-05T06:46:56.185Z,27.71
2022-08-05T06:50:00.058Z,27.79
2022-08-05T06:52:36.718Z,27.97
2022-08-05T06:55:03.483Z,27.98
2022-08-05T06:57:57.615Z,28.02
2022-08-05T07:00:22.341Z,28.14
2022-08-05T07:02:53.591Z,28.19
2022-08-05T07:05:37.045Z,28.38
2022-08-05T07:08:10.777Z,28.34
2022-08-05T07:10:52.474Z,28.41
2022-08-05T07:13:58.042Z,28.41
2022-08-05T07:17:59.178Z,28.55
2022-08-05T07:22:29.854Z,28.86
2022-08-05T07:25:21.760Z,28.84
2022-08-05T07:27:58.658Z,28.92
2022-08-05T07:30:33.394Z,28.89
2022-08-05T07:33:08.807Z,29.10
2022-08-05T07:36:05.022Z,29.01
2022-08-05T07:38:33.335Z,29.42
2022-08-05T07:42:09.176Z,29.68
2022-08-05T07:43:56.315Z,29.73
2022-08-05T07:46:28.819Z,29.89
2022-08-05T07:49:02.569Z,30.07
2022-08-05T07:51:36.625Z,30.16
2022-08-05T07:54:08.337Z,30.17
2022-08-05T07:57:01.810Z,30.06
2022-08-05T07:59:38.567Z,30.18
2022-08-05T08:02:17.120Z,30.30
2022-08-05T08:04:48.704Z,30.41
2022-08-05T08:07:17.952Z,30.41
2022-08-05T08:09:52.294Z,30.34
2022-08-05T08:12:35.639Z,30.48
2022-08-05T08:15:15.623Z,30.52
2022-08-05T08:17:50.802Z,30.74
2022-08-05T08:20:43.455Z,30.78
2022-08-05T08:24:03.403Z,30.85
2022-08-05T08:26:04.524Z,30.95
2022-08-05T08:28:36.586Z,31.02
2022-08-05T08:31:21.952Z,31.27
2022-08-05T08:33:53.180Z,31.43
2022-08-05T08:36:38.556Z,31.31
2022-08-05T08:39:15.061Z,31.50
2022-08-05T08:41:51.930Z,31.70
2022-08-05T08:45:19.670Z,31.95
2022-08-05T08:48:07.049Z,32.01
2022-08-05T08:50:30.437Z,31.86
2022-08-05T08:53:07.985Z,32.05
2022-08-05T08:56:04.249Z,32.05
2022-08-05T08:58:36.956Z,32.23
2022-08-05T09:01:08.678Z,32.35
2022-08-05T09:03:45.633Z,32.39
2022-08-05T09:06:18.653Z,32.43
2022-08-05T09:08:49.459Z,32.64
2022-08-05T09:11:18.282Z,32.86
2022-08-05T09:14:54.087Z,32.95
2022-08-05T09:16:56.646Z,32.78
2022-08-05T09:19:27.861Z,33.01
2022-08-05T09:22:22.656Z,32.86
2022-08-05T09:24:58.769Z,33.03
2022-08-05T09:28:05.497Z,33.33
2022-08-05T09:30:26.066Z,33.48
2022-08-05T09:32:54.835Z,33.41
2022-08-05T09:35:27.586Z,33.66
2022-08-05T09:38:17.234Z,34.10
2022-08-05T09:40:52.420Z,34.11
2022-08-05T09:43:41.300Z,34.35
2022-08-05T09:46:27.401Z,34.45
2022-08-05T09:49:07.773Z,34.54
2022-08-05T09:51:49.525Z,34.59
2022-08-05T09:54:32.135Z,34.59
2022-08-05T09:57:01.618Z,34.03
2022-08-05T09:59:34.844Z,34.55
2022-08-05T10:02:06.076Z,34.44
2022-08-05T10:04:41.077Z,34.83
2022-08-05T10:07:20.498Z,34.72
2022-08-05T10:10:13.781Z,34.78
2022-08-05T10:12:50.005Z,34.49
2022-08-05T10:15:21.780Z,34.66
2022-08-05T10:18:13.970Z,34.92
2022-08-05T10:20:47.947Z,35.14
2022-08-05T10:23:34.338Z,35.00
2022-08-05T10:26:14.360Z,35.23
2022-08-05T10:28:43.764Z,35.33
2022-08-05T10:32:53.997Z,35.44
2022-08-05T10:34:03.466Z,35.37
2022-08-05T10:36:32.267Z,35.62
2022-08-05T10:39:11.600Z,35.64
2022-08-05T10:41:56.806Z,35.29
2022-08-05T10:44:34.254Z,35.73
2022-08-05T10:47:26.036Z,35.65
2022-08-05T10:50:31.691Z,35.78
2022-08-05T10:52:59.917Z,35.92
2022-08-05T10:55:30.444Z,36.16
2022-08-05T10:58:11.407Z,35.58
2022-08-05T11:00:46.843Z,35.89
2022-08-05T11:03:24.725Z,35.80
2022-08-05T11:06:05.870Z,35.75
2022-08-05T11:08:39.101Z,36.08
2022-08-05T11:11:44.471Z,36.20
2022-08-05T11:14:57.396Z,36.29
2022-08-05T11:17:53.356Z,36.33
2022-08-05T11:20:41.575Z,36.71
2022-08-05T11:23:49.905Z,36.67
2022-08-05T11:26:28.014Z,36.84
2022-08-05T11:28:59.421Z,36.60
2022-08-05T11:31:57.234Z,36.77
2022-08-05T11:34:51.547Z,36.20
2022-08-05T11:38:27.961Z,35.88
2022-08-05T11:41:34.226Z,36.77
2022-08-05T11:44:07.414Z,36.71
2022-08-05T11:47:09.634Z,36.39
2022-08-05T11:49:28.006Z,36.51
2022-08-05T11:51:57.326Z,36.76
2022-08-05T11:54:33.554Z,37.22
2022-08-05T11:57:08.371Z,36.81
2022-08-05T11:59:55.131Z,37.11
2022-08-05T12:02:33.003Z,36.85
2022-08-05T12:05:06.849Z,37.26
2022-08-05T12:08:03.823Z,36.71
2022-08-05T12:10:43.221Z,37.15
2022-08-05T12:13:27.623Z,37.19
2022-08-05T12:16:14.813Z,37.63
2022-08-05T12:18:49.477Z,36.99
2022-08-05T12:21:26.773Z,36.66
2022-08-05T12:24:06.951Z,37.02
2022-08-05T12:26:36.710Z,37.05
2022-08-05T12:29:09.464Z,37.41
2022-08-05T12:31:52.995Z,37.62
2022-08-05T12:34:28.525Z,37.87
2022-08-05T12:36:59.678Z,37.22
2022-08-05T12:39:37.336Z,37.46
2022-08-05T12:42:14.847Z,37.59
2022-08-05T12:44:44.752Z,37.66
2022-08-05T12:47:17.780Z,37.59
2022-08-05T12:50:03.140Z,37.45
2022-08-05T12:52:42.197Z,37.58
2022-08-05T12:55:26.403Z,37.47
2022-08-05T12:58:49.149Z,37.65
2022-08-05T13:02:01.009Z,37.55
2022-08-05T13:03:41.764Z,37.84
2022-08-05T13:06:16.590Z,37.91
2022-08-05T13:08:50.836Z,37.76
2022-08-05T13:11:59.776Z,37.62
2022-08-05T13:14:25.038Z,37.56
2022-08-05T13:17:10.573Z,37.53
2022-08-05T13:19:51.808Z,37.96
2022-08-05T13:22:35.666Z,38.39
2022-08-05T13:25:07.933Z,38.24
2022-08-05T13:27:50.403Z,38.36
2022-08-05T13:30:34.630Z,38.23
2022-08-05T13:33:05.435Z,37.70
2022-08-05T13:35:47.073Z,37.42
2022-08-05T13:38:30.312Z,37.38
2022-08-05T13:41:03.874Z,37.91
2022-08-05T13:43:44.433Z,38.17
2022-08-05T13:46:50.819Z,37.59
2022-08-05T13:49:10.154Z,37.23
2022-08-05T13:51:45.770Z,37.70
2022-08-05T13:54:21.182Z,37.73
2022-08-05T13:56:53.475Z,37.83
2022-08-05T13:59:24.591Z,38.07
2022-08-05T14:01:56.918Z,37.89
2022-08-05T14:04:49.446Z,37.69
2022-08-05T14:07:25.850Z,37.65
2022-08-05T14:10:18.715Z,37.84
2022-08-05T14:12:48.454Z,37.87
2022-08-05T14:16:07.236Z,37.80
2022-08-05T14:18:14.915Z,37.77
2022-08-05T14:20:48.250Z,38.20
2022-08-05T14:23:23.418Z,38.00
2022-08-05T14:25:58.845Z,38.03
2022-08-05T14:28:28.086Z,38.00
2022-08-05T14:30:56.906Z,37.63
2022-08-05T14:33:25.423Z,37.55
2022-08-05T14:35:54.775Z,37.93
2022-08-05T14:38:32.315Z,38.18
2022-08-05T14:41:07.753Z,38.10
2022-08-05T14:43:59.391Z,38.32
2022-08-05T14:46:28.790Z,37.79
2022-08-05T14:49:06.266Z,37.46
2022-08-05T14:51:38.210Z,37.72
2022-08-05T14:54:28.753Z,37.65
2022-08-05T14:56:59.696Z,37.28
2022-08-05T14:59:29.405Z,37.49
2022-08-05T15:02:03.750Z,37.49
2022-08-05T15:04:44.909Z,37.15
2022-08-05T15:08:08.913Z,37.15
2022-08-05T15:10:09.851Z,37.15
2022-08-05T15:12:59.603Z,36.98
2022-08-05T15:15:55.454Z,37.12
2022-08-05T15:18:17.437Z,37.31
2022-08-05T15:20:45.980Z,37.52
2022-08-05T15:23:14.750Z,37.68
2022-08-05T15:25:52.279Z,37.53
2022-08-05T15:28:27.311Z,37.65
2022-08-05T15:30:56.961Z,37.55
2022-08-05T15:34:04.433Z,37.58
2022-08-05T15:36:17.015Z,37.29
2022-08-05T15:41:00.100Z,37.01
2022-08-05T15:41:58.531Z,37.04
2022-08-05T15:44:33.617Z,36.98
2022-08-05T15:47:03.759Z,36.99
2022-08-05T15:49:52.021Z,36.94
2022-08-05T15:52:29.130Z,36.77
2022-08-05T15:54:58.173Z,36.60
2022-08-05T15:57:33.093Z,36.41
2022-08-05T16:00:06.336Z,36.51
2022-08-05T16:02:34.872Z,36.67
2022-08-05T16:05:03.297Z,36.68
2022-08-05T16:07:34.404Z,36.76
2022-08-05T16:10:03.663Z,36.46
2022-08-05T16:12:31.971Z,36.60
2022-08-05T16:15:00.576Z,36.56
2022-08-05T16:17:30.362Z,36.71
2022-08-05T16:20:11.269Z,36.56
2022-08-05T16:22:40.488Z,36.41
2022-08-05T16:25:10.535Z,36.44
2022-08-05T16:28:01.039Z,36.30
2022-08-05T16:30:29.000Z,36.29
2022-08-05T16:32:59.071Z,35.92
2022-08-05T16:35:32.386Z,35.99
2022-08-05T16:38:18.560Z,35.93
2022-08-05T16:40:55.346Z,35.84
2022-08-05T16:43:30.312Z,35.96
2022-08-05T16:46:03.613Z,35.80
2022-08-05T16:48:39.252Z,35.74
2022-08-05T16:51:09.506Z,35.70
2022-08-05T16:54:02.798Z,35.80
2022-08-05T16:56:34.401Z,35.53
2022-08-05T16:59:08.548Z,35.41
2022-08-05T17:01:54.541Z,35.26
2022-08-05T17:04:27.783Z,35.14
2022-08-05T17:07:01.047Z,35.03
2022-08-05T17:09:30.263Z,34.88
2022-08-05T17:12:07.996Z,34.75
2022-08-05T17:14:40.181Z,34.58
2022-08-05T17:17:14.608Z,34.51
2022-08-05T17:19:46.502Z,34.37
2022-08-05T17:22:25.253Z,34.21
2022-08-05T17:24:57.421Z,34.13
2022-08-05T17:27:33.746Z,33.96
2022-08-05T17:30:03.728Z,33.86
2022-08-05T17:32:33.791Z,33.80
2022-08-05T17:35:05.130Z,33.65
2022-08-05T17:37:41.675Z,33.66
2022-08-05T17:40:15.394Z,33.55
2022-08-05T17:42:50.552Z,33.55
2022-08-05T17:45:22.162Z,33.48
2022-08-05T17:47:54.928Z,33.46
2022-08-05T17:50:30.381Z,33.36
2022-08-05T17:53:04.737Z,33.49
2022-08-05T17:55:39.464Z,33.62
2022-08-05T17:58:12.836Z,33.66
2022-08-05T18:00:45.015Z,33.68
2022-08-05T18:06:11.040Z,33.65
2022-08-05T18:08:44.865Z,33.65
2022-08-05T18:11:23.717Z,32.92
2022-08-05T18:13:54.695Z,31.84
2022-08-05T18:16:23.566Z,30.99
2022-08-05T18:18:51.793Z,30.86
2022-08-05T18:21:22.943Z,30.90
2022-08-05T18:23:54.886Z,30.61
2022-08-05T18:26:27.593Z,30.72
2022-08-05T18:28:58.119Z,30.34
2022-08-05T18:31:35.184Z,30.20
2022-08-05T18:34:05.953Z,30.10
2022-08-05T18:36:36.524Z,29.89
2022-08-05T18:39:09.642Z,29.79
2022-08-05T18:41:58.285Z,29.68
2022-08-05T18:44:34.785Z,29.48
2022-08-05T18:47:05.143Z,29.95
2022-08-05T18:49:58.105Z,29.66
2022-08-05T18:52:37.999Z,29.06
2022-08-05T18:55:10.646Z,28.66
2022-08-05T18:57:43.601Z,28.59
2022-08-05T19:00:28.523Z,28.60
2022-08-05T19:03:03.948Z,28.62
2022-08-05T19:06:13.495Z,28.41
2022-08-05T19:08:30.651Z,28.17
2022-08-05T19:11:28.554Z,28.39
2022-08-05T19:14:38.113Z,27.70
2022-08-05T19:16:54.053Z,27.59
2022-08-05T19:19:23.247Z,27.64
2022-08-05T19:21:52.372Z,27.57
2022-08-05T19:24:34.100Z,27.57
2022-08-05T19:27:03.981Z,27.35
2022-08-05T19:29:35.796Z,27.33
2022-08-05T19:32:08.491Z,27.35
2022-08-05T19:34:39.052Z,27.12
2022-08-05T19:37:07.938Z,27.19
2022-08-05T19:39:45.168Z,27.62
2022-08-05T19:42:15.284Z,27.69
2022-08-05T19:44:45.108Z,27.69
2022-08-05T19:47:16.247Z,27.74
2022-08-05T19:49:46.151Z,27.90
2022-08-05T19:52:30.981Z,27.96
2022-08-05T19:55:07.011Z,27.89
2022-08-05T19:58:19.765Z,27.91
2022-08-05T20:00:38.805Z,27.94
2022-08-05T20:03:09.018Z,27.81
2022-08-05T20:05:43.245Z,27.69
2022-08-05T20:08:18.215Z,27.35
2022-08-05T20:10:49.464Z,27.21
2022-08-05T20:13:30.048Z,27.29
2022-08-05T20:16:07.469Z,27.21
2022-08-05T20:18:36.146Z,27.15
2022-08-05T20:21:06.764Z,27.16
2022-08-05T20:23:39.181Z,26.98
2022-08-05T20:26:19.562Z,27.15
2022-08-05T20:28:50.683Z,27.09
2022-08-05T20:31:21.900Z,26.74
2022-08-05T20:33:52.141Z,26.46
2022-08-05T20:36:24.006Z,25.91
2022-08-05T20:38:53.408Z,25.58
2022-08-05T20:41:26.826Z,25.37
2022-08-05T20:44:17.222Z,25.61
2022-08-05T20:46:48.141Z,25.89
2022-08-05T20:49:23.986Z,25.89
2022-08-05T20:51:53.882Z,25.74
2022-08-05T20:54:26.133Z,25.67
2022-08-05T20:57:42.018Z,25.73
2022-08-05T21:00:20.639Z,25.64
2022-08-05T21:03:01.276Z,25.58
2022-08-05T21:05:37.999Z,25.27
2022-08-05T21:08:18.586Z,25.03
2022-08-05T21:10:49.019Z,24.79
2022-08-05T21:13:26.396Z,24.62
2022-08-05T21:16:08.192Z,24.64
2022-08-05T21:18:36.714Z,24.73
2022-08-05T21:21:05.548Z,24.82
2022-08-05T21:23:37.122Z,24.82
2022-08-05T21:26:12.141Z,24.45
2022-08-05T21:28:50.528Z,23.51
2022-08-05T21:31:19.962Z,23.06
2022-08-05T21:33:50.570Z,22.76
2022-08-05T21:36:29.771Z,22.72
2022-08-05T21:38:58.695Z,22.62
2022-08-05T21:41:34.027Z,22.86
2022-08-05T21:44:05.542Z,23.08
2022-08-05T21:46:35.018Z,23.30
2022-08-05T21:49:04.652Z,23.44
2022-08-05T21:52:21.652Z,23.47
2022-08-05T21:54:30.690Z,23.61
2022-08-05T21:57:29.614Z,23.59
2022-08-05T22:00:06.226Z,23.61
2022-08-05T22:02:44.484Z,23.58
2022-08-05T22:05:14.480Z,23.62
2022-08-05T22:07:58.904Z,23.55
2022-08-05T22:10:31.198Z,23.30
2022-08-05T22:14:06.459Z,23.38
2022-08-05T22:16:01.991Z,22.77
2022-08-05T22:18:39.500Z,22.62
2022-08-05T22:21:18.936Z,22.73
2022-08-05T22:24:12.980Z,22.73
2022-08-05T22:27:14.040Z,22.86
2022-08-05T22:29:45.972Z,22.87
2022-08-05T22:32:17.375Z,22.77
2022-08-05T22:34:46.113Z,22.92
2022-08-05T22:37:14.257Z,23.03
2022-08-05T22:39:42.556Z,23.00
2022-08-05T22:42:15.479Z,22.84
2022-08-05T22:44:56.680Z,22.76
2022-08-05T22:47:29.596Z,22.77
2022-08-05T22:50:19.177Z,22.72
2022-08-05T22:52:48.544Z,22.72
2022-08-05T22:55:18.610Z,22.49
2022-08-05T22:57:49.051Z,22.52
2022-08-05T23:00:20.752Z,22.59
2022-08-05T23:02:52.102Z,22.65
2022-08-05T23:05:22.010Z,22.59
2022-08-05T23:07:50.874Z,22.48
2022-08-05T23:10:23.604Z,22.53
2022-08-05T23:12:55.577Z,22.41
2022-08-05T23:15:29.318Z,22.48
2022-08-05T23:18:03.354Z,22.42
2022-08-05T23:20:37.352Z,22.27
2022-08-05T23:23:08.352Z,22.18
2022-08-05T23:25:53.250Z,22.05
2022-08-05T23:28:24.021Z,21.79
2022-08-05T23:31:15.942Z,21.73
2022-08-05T23:34:05.956Z,22.02
2022-08-05T23:36:40.119Z,22.00
2022-08-05T23:39:17.612Z,22.05
2022-08-05T23:42:01.697Z,22.18
2022-08-05T23:44:32.237Z,22.15
2022-08-05T23:47:02.671Z,21.80
2022-08-05T23:49:45.823Z,22.02
2022-08-05T23:52:36.127Z,21.93
2022-08-05T23:55:18.567Z,21.71
2022-08-05T23:57:52.887Z,21.93
